Detalii statie TRANSAVIA GRUP [00001CF7]

Toti senzorii

Date Temperatura solului [C]Precipitatii [mm]Voltaj baterie [mV]HC Air temperature [C]HC Relative humidity [%]Punctul de roua [C]
medieminmaxsumaultimamedieminmaxmediemediemin
2019-02-21 01:00:00 2.4 2.3 2.6 0 6874 1.33 0.99 1.58 0 0 0
2019-02-21 02:00:00 2.4 2.3 2.6 0 6864 1.62 1.06 2.09 0 0 0
2019-02-21 03:00:00 2.3 2.2 2.4 0 6864 2.25 1.82 2.91 0 0 0
2019-02-21 04:00:00 2.3 2.2 2.4 0 6864 0.96 0.1 1.57 0 0 0
2019-02-21 05:00:00 2.2 2.1 2.3 0 6854 -0.05 -0.65 0.57 0 0 0
2019-02-21 06:00:00 2.1 2 2.2 0 6844 -0.98 -1.56 -0.48 0 0 0
2019-02-21 07:00:00 2 1.8 2.1 0 6834 -2.06 -2.93 -1.07 0 0 0
2019-02-21 08:00:00 1.9 1.7 2 0 6864 -2.86 -3.3 -2.49 0 0 0
2019-02-21 09:00:00 1.8 1.7 1.9 0 7118 -1.35 -2.48 0.86 0 0 0
2019-02-21 10:00:00 1.7 1.7 1.8 0 7314 3.29 0.91 5.58 0 0 0
2019-02-21 11:00:00 1.5 1.5 1.7 0 7324 7.01 5.3 9.1 0 0 0
2019-02-21 12:00:00 1.6 1.5 1.8 0 7324 8.57 7.9 9.27 0 0 0
2019-02-21 13:00:00 1.8 1.7 2 0 7332 8.36 8.07 8.76 0 0 0
2019-02-21 14:00:00 2.2 2.1 2.4 0 7324 9.47 8.27 10.74 0 0 0
2019-02-21 15:00:00 2.5 2.3 2.8 0 7314 9.46 9.01 10.28 0 0 0
2019-02-21 16:00:00 2.9 2.8 3.2 0 7216 9.32 8.6 9.73 0 0 0
2019-02-21 17:00:00 3.1 3 3.2 0 7088 8.45 7.99 8.85 0 0 0
2019-02-21 18:00:00 3.3 3.1 3.5 0 6982 7.01 6.3 7.93 0 0 0
2019-02-21 19:00:00 3.2 3.1 3.5 0 6942 5.44 4.23 6.35 0 0 0
2019-02-21 20:00:00 3.1 3 3.2 0 6922 3.35 2.06 4.67 0 0 0
2019-02-21 21:00:00 3.1 3 3.4 0 6904 0.69 -0.37 1.69 0 0 0
2019-02-21 22:00:00 2.9 2.8 3.1 0 6894 -1.01 -1.55 -0.22 0 0 0
2019-02-21 23:00:00 2.8 2.6 3.1 0 6874 -1.99 -2.26 -1.7 0 0 0
2019-02-22 00:00:00 2.6 2.5 2.7 0 6864 -2.31 -3.01 -1.9 0 0 0
2019-02-22 01:00:00 2.4 2.3 2.6 0 6854
2019-02-22 02:00:00 2.3 2.3 2.5 0 6854
2019-02-22 03:00:00 2.2 2.2 2.4 0 6854
2019-02-22 04:00:00 2.1 2.1 2.2 0 6864
2019-02-22 05:00:00 2.1 2.1 2.2 0.2 6864
2019-02-22 06:00:00 2.1 2.1 2.2 1.2 6854
2019-02-22 07:00:00 2.1 2.1 2.2 1.4 6844
2019-02-22 08:00:00 2.1 2.1 2.2 0.4 6844
2019-02-22 09:00:00 2.1 2.1 2.2 0.2 6854
2019-02-22 10:00:00 2.1 2.1 2.3 0 6884
2019-02-22 11:00:00 2.2 2.1 2.4 0 6932
2019-02-22 12:00:00 2.3 2.3 2.4 0 7010
2019-02-22 13:00:00 2.4 2.3 2.8 0 6932
2019-02-22 14:00:00 2.6 2.5 2.7 0 6874
2019-02-22 15:00:00 2.7 2.5 2.9 0 6854
2019-02-22 16:00:00 2.7 2.6 2.8 0.6 6844
2019-02-22 17:00:00 2.7 2.7 2.9 0.4 6844
2019-02-22 18:00:00 2.8 2.7 2.9 1.6 6844
2019-02-22 19:00:00 2.8 2.7 2.9 0 6816
2019-02-22 20:00:00 2.7 2.6 2.8 0 6844
2019-02-22 21:00:00 2.6 2.5 2.7 0 6844
2019-02-22 22:00:00 2.4 2.2 2.5 0 6834
2019-02-22 23:00:00 2.3 2.2 2.4 0 6826
2019-02-23 00:00:00 2.1 2.1 2.3 0 6826